createdAt,value
2022-08-11T00:01:07.649Z,1.00
2022-08-11T00:03:43.110Z,1.00
2022-08-11T00:06:14.143Z,1.00
2022-08-11T00:08:42.209Z,1.00
2022-08-11T00:11:12.067Z,1.00
2022-08-11T00:13:45.633Z,1.00
2022-08-11T00:16:18.416Z,1.00
2022-08-11T00:18:49.413Z,1.00
2022-08-11T00:21:17.016Z,1.00
2022-08-11T00:23:53.494Z,1.00
2022-08-11T00:26:20.735Z,1.00
2022-08-11T00:28:47.948Z,1.00
2022-08-11T00:31:27.327Z,1.00
2022-08-11T00:33:55.096Z,1.00
2022-08-11T00:36:29.100Z,1.00
2022-08-11T00:39:03.799Z,1.00
2022-08-11T00:41:41.193Z,1.00
2022-08-11T00:44:28.295Z,1.00
2022-08-11T00:47:04.703Z,1.00
2022-08-11T00:49:40.525Z,1.00
2022-08-11T00:52:21.127Z,1.00
2022-08-11T00:55:22.346Z,1.00
2022-08-11T00:57:58.116Z,1.00
2022-08-11T01:00:27.449Z,1.00
2022-08-11T01:03:03.457Z,1.00
2022-08-11T01:06:07.781Z,1.00
2022-08-11T01:09:21.036Z,1.00
2022-08-11T01:12:21.144Z,1.00
2022-08-11T01:15:25.525Z,1.00
2022-08-11T01:18:11.257Z,1.00
2022-08-11T01:20:49.602Z,1.00
2022-08-11T01:23:25.604Z,1.00
2022-08-11T01:26:19.660Z,1.00
2022-08-11T01:29:11.938Z,1.00
2022-08-11T01:32:16.557Z,1.00
2022-08-11T01:34:43.354Z,1.00
2022-08-11T01:37:58.210Z,1.00
2022-08-11T01:40:38.216Z,1.00
2022-08-11T01:43:33.206Z,1.00
2022-08-11T01:46:28.498Z,1.00
2022-08-11T01:50:06.742Z,1.00
2022-08-11T01:52:35.253Z,1.00
2022-08-11T01:55:39.990Z,1.00
2022-08-11T01:58:06.913Z,1.00
2022-08-11T02:00:46.612Z,1.00
2022-08-11T02:03:27.259Z,1.00
2022-08-11T02:06:02.039Z,1.00
2022-08-11T02:08:34.829Z,1.00
2022-08-11T02:11:37.679Z,1.00
2022-08-11T02:14:29.422Z,1.00
2022-08-11T02:17:11.472Z,1.00
2022-08-11T02:20:09.021Z,1.00
2022-08-11T02:23:58.678Z,1.00
2022-08-11T02:26:17.068Z,1.00
2022-08-11T02:29:10.728Z,1.00
2022-08-11T02:32:14.611Z,1.00
2022-08-11T02:34:59.936Z,1.00
2022-08-11T02:37:33.671Z,1.00
2022-08-11T02:40:23.353Z,1.00
2022-08-11T02:43:10.584Z,1.00
2022-08-11T02:45:59.344Z,1.00
2022-08-11T02:49:31.371Z,1.00
2022-08-11T02:52:20.267Z,1.00
2022-08-11T02:55:10.744Z,1.00
2022-08-11T02:58:27.118Z,1.00
2022-08-11T03:01:03.716Z,1.00
2022-08-11T03:03:35.653Z,1.00
2022-08-11T03:06:13.072Z,1.00
2022-08-11T03:08:55.018Z,1.00
2022-08-11T03:11:49.966Z,1.00
2022-08-11T03:14:50.259Z,1.00
2022-08-11T03:17:32.885Z,1.00
2022-08-11T03:20:16.750Z,1.00
2022-08-11T03:22:58.191Z,1.00
2022-08-11T03:25:51.753Z,1.00
2022-08-11T03:28:27.412Z,1.00
2022-08-11T03:31:19.369Z,1.00
2022-08-11T03:34:06.800Z,1.00
2022-08-11T03:37:15.714Z,1.00
2022-08-11T03:39:52.698Z,1.00
2022-08-11T03:42:49.394Z,1.00
2022-08-11T03:45:26.830Z,1.00
2022-08-11T03:48:31.369Z,1.00
2022-08-11T03:51:03.097Z,1.00
2022-08-11T03:53:40.322Z,1.00
2022-08-11T03:56:35.363Z,1.00
2022-08-11T03:59:11.526Z,1.00
2022-08-11T04:01:56.895Z,1.00
2022-08-11T04:04:56.791Z,1.00
2022-08-11T04:07:35.956Z,1.00
2022-08-11T04:10:36.498Z,1.00
2022-08-11T04:13:22.045Z,1.00
2022-08-11T04:16:24.537Z,1.00
2022-08-11T04:19:00.770Z,1.00
2022-08-11T04:21:49.015Z,1.00
2022-08-11T04:24:38.664Z,1.00
2022-08-11T04:27:37.481Z,1.00
2022-08-11T04:30:12.298Z,1.00
2022-08-11T04:33:07.120Z,1.00
2022-08-11T04:36:02.763Z,1.00
2022-08-11T04:38:46.545Z,1.00
2022-08-11T04:41:34.758Z,1.00
2022-08-11T04:44:24.156Z,1.00
2022-08-11T04:47:10.010Z,1.00
2022-08-11T04:50:41.995Z,1.00
2022-08-11T04:54:16.961Z,1.00
2022-08-11T04:57:03.352Z,1.00
2022-08-11T05:00:00.366Z,2.40
2022-08-11T05:02:58.371Z,10.00
2022-08-11T05:05:56.416Z,27.60
2022-08-11T05:08:52.392Z,31.80
2022-08-11T05:11:39.521Z,39.10
2022-08-11T05:14:30.963Z,45.10
2022-08-11T05:17:31.284Z,72.10
2022-08-11T05:20:16.653Z,82.90
2022-08-11T05:23:10.152Z,99.90
2022-08-11T05:26:45.123Z,99.90
2022-08-11T05:29:20.629Z,99.90
2022-08-11T05:32:18.105Z,99.90
2022-08-11T05:34:54.617Z,99.90
2022-08-11T05:37:30.690Z,99.90
2022-08-11T05:40:26.041Z,99.90
2022-08-11T05:43:25.205Z,99.90
2022-08-11T05:46:22.649Z,99.90
2022-08-11T05:49:10.661Z,99.90
2022-08-11T05:52:04.856Z,99.90
2022-08-11T05:54:51.440Z,99.90
2022-08-11T05:57:49.607Z,99.90
2022-08-11T06:00:11.350Z,99.90
2022-08-11T06:02:55.417Z,99.90
2022-08-11T06:05:25.145Z,99.90
2022-08-11T06:07:54.520Z,99.90
2022-08-11T06:10:28.527Z,99.90
2022-08-11T06:12:58.352Z,99.90
2022-08-11T06:15:25.970Z,99.90
2022-08-11T06:17:54.415Z,99.90
2022-08-11T06:20:22.640Z,99.90
2022-08-11T06:22:58.014Z,99.90
2022-08-11T06:25:32.426Z,99.90
2022-08-11T06:28:00.413Z,99.90
2022-08-11T06:30:42.667Z,99.90
2022-08-11T06:33:30.651Z,99.90
2022-08-11T06:36:04.377Z,99.90
2022-08-11T06:38:49.779Z,99.90
2022-08-11T06:41:30.777Z,99.90
2022-08-11T06:44:10.429Z,99.90
2022-08-11T06:46:40.295Z,99.90
2022-08-11T06:49:34.460Z,99.90
2022-08-11T06:52:34.228Z,99.90
2022-08-11T06:55:06.536Z,99.90
2022-08-11T06:57:54.526Z,99.90
2022-08-11T07:00:30.399Z,99.90
2022-08-11T07:03:20.273Z,99.90
2022-08-11T07:05:59.097Z,99.90
2022-08-11T07:09:00.784Z,99.90
2022-08-11T07:12:24.199Z,99.90
2022-08-11T07:15:14.464Z,99.90
2022-08-11T07:18:13.622Z,99.90
2022-08-11T07:21:06.525Z,99.90
2022-08-11T07:24:13.586Z,99.90
2022-08-11T07:27:11.723Z,99.90
2022-08-11T07:29:39.296Z,99.90
2022-08-11T07:32:15.884Z,99.90
2022-08-11T07:34:47.443Z,99.90
2022-08-11T07:37:18.173Z,99.90
2022-08-11T07:39:45.800Z,99.90
2022-08-11T07:42:15.713Z,99.90
2022-08-11T07:45:01.674Z,99.90
2022-08-11T07:47:47.688Z,99.90
2022-08-11T07:50:33.184Z,99.90
2022-08-11T07:53:01.084Z,99.90
2022-08-11T07:55:51.335Z,99.90
2022-08-11T07:58:45.086Z,99.90
2022-08-11T08:01:37.343Z,99.90
2022-08-11T08:04:24.470Z,99.90
2022-08-11T08:07:10.757Z,99.90
2022-08-11T08:09:56.850Z,99.90
2022-08-11T08:12:43.893Z,99.90
2022-08-11T08:15:30.720Z,99.90
2022-08-11T08:18:09.162Z,99.90
2022-08-11T08:20:46.936Z,99.90
2022-08-11T08:23:14.208Z,99.90
2022-08-11T08:25:42.658Z,99.90
2022-08-11T08:28:17.229Z,99.90
2022-08-11T08:30:47.985Z,99.90
2022-08-11T08:33:19.095Z,99.90
2022-08-11T08:35:54.515Z,99.90
2022-08-11T08:38:23.275Z,99.90
2022-08-11T08:40:55.628Z,99.90
2022-08-11T08:43:23.855Z,99.90
2022-08-11T08:45:54.159Z,99.90
2022-08-11T08:48:23.900Z,99.90
2022-08-11T08:51:13.451Z,99.90
2022-08-11T08:53:53.495Z,99.90
2022-08-11T08:56:30.459Z,99.90
2022-08-11T08:58:59.673Z,99.90
2022-08-11T09:01:29.784Z,99.90
2022-08-11T09:04:06.633Z,99.90
2022-08-11T09:06:40.059Z,95.30
2022-08-11T09:09:12.318Z,94.30
2022-08-11T09:11:56.045Z,92.50
2022-08-11T09:14:25.136Z,95.50
2022-08-11T09:16:52.909Z,99.90
2022-08-11T09:19:21.367Z,91.40
2022-08-11T09:22:10.450Z,70.10
2022-08-11T09:24:56.884Z,72.30
2022-08-11T09:27:50.592Z,81.30
2022-08-11T09:30:19.685Z,76.90
2022-08-11T09:32:47.310Z,82.40
2022-08-11T09:35:14.327Z,59.50
2022-08-11T09:37:59.937Z,68.50
2022-08-11T09:40:30.118Z,67.50
2022-08-11T09:43:17.194Z,59.80
2022-08-11T09:45:51.491Z,67.10
2022-08-11T09:48:29.773Z,68.40
2022-08-11T09:51:01.514Z,56.70
2022-08-11T09:53:35.900Z,60.40
2022-08-11T09:56:30.004Z,60.00
2022-08-11T09:58:57.851Z,62.40
2022-08-11T10:01:30.052Z,51.90
2022-08-11T10:04:04.870Z,63.70
2022-08-11T10:06:54.313Z,54.00
2022-08-11T10:09:22.867Z,61.50
2022-08-11T10:11:58.484Z,56.40
2022-08-11T10:14:45.676Z,78.90
2022-08-11T10:17:13.754Z,55.60
2022-08-11T10:19:42.525Z,48.20
2022-08-11T10:22:28.065Z,52.80
2022-08-11T10:25:15.269Z,52.50
2022-08-11T10:28:33.187Z,38.80
2022-08-11T10:31:00.293Z,45.70
2022-08-11T10:33:57.588Z,66.00
2022-08-11T10:36:32.132Z,48.60
2022-08-11T10:39:00.812Z,45.70
2022-08-11T10:42:03.453Z,44.70
2022-08-11T10:44:46.557Z,31.40
2022-08-11T10:47:33.507Z,52.50
2022-08-11T10:50:20.881Z,39.20
2022-08-11T10:53:07.938Z,23.30
2022-08-11T10:55:58.583Z,27.40
2022-08-11T10:58:44.750Z,31.20
2022-08-11T11:01:13.475Z,25.00
2022-08-11T11:03:41.108Z,30.70
2022-08-11T11:06:45.543Z,28.50
2022-08-11T11:09:44.072Z,24.00
2022-08-11T11:12:42.896Z,27.20
2022-08-11T11:15:29.954Z,32.60
2022-08-11T11:18:03.108Z,26.60
2022-08-11T11:20:47.184Z,26.50
2022-08-11T11:23:22.175Z,30.00
2022-08-11T11:26:07.098Z,34.60
2022-08-11T11:28:56.002Z,30.20
2022-08-11T11:31:51.923Z,28.10
2022-08-11T11:34:37.119Z,36.40
2022-08-11T11:37:20.705Z,29.10
2022-08-11T11:39:47.902Z,20.30
2022-08-11T11:42:15.073Z,19.70
2022-08-11T11:44:45.002Z,22.70
2022-08-11T11:47:13.045Z,25.60
2022-08-11T11:49:43.975Z,22.50
2022-08-11T11:52:18.219Z,22.70
2022-08-11T11:54:50.302Z,15.20
2022-08-11T11:57:37.451Z,18.40
2022-08-11T12:00:25.413Z,8.70
2022-08-11T12:03:03.761Z,10.90
2022-08-11T12:05:34.054Z,17.90
2022-08-11T12:08:14.471Z,14.60
2022-08-11T12:10:45.223Z,14.10
2022-08-11T12:13:32.127Z,15.20
2022-08-11T12:16:31.803Z,13.50
2022-08-11T12:18:57.311Z,12.60
2022-08-11T12:21:25.114Z,9.40
2022-08-11T12:24:10.995Z,12.60
2022-08-11T12:27:16.132Z,11.90
2022-08-11T12:29:51.411Z,17.10
2022-08-11T12:32:26.441Z,5.10
2022-08-11T12:34:53.765Z,6.30
2022-08-11T12:37:30.485Z,11.90
2022-08-11T12:40:42.415Z,9.30
2022-08-11T12:43:38.466Z,5.20
2022-08-11T12:46:12.299Z,7.70
2022-08-11T12:49:04.173Z,1.30
2022-08-11T12:52:14.341Z,5.10
2022-08-11T12:54:49.967Z,1.00
2022-08-11T12:57:56.203Z,1.00
2022-08-11T13:00:43.198Z,1.00
2022-08-11T13:03:32.512Z,1.00
2022-08-11T13:06:05.225Z,1.00
2022-08-11T13:08:35.942Z,1.00
2022-08-11T13:11:22.524Z,1.00
2022-08-11T13:13:57.113Z,1.00
2022-08-11T13:16:28.539Z,1.00
2022-08-11T13:18:57.824Z,1.00
2022-08-11T13:21:25.505Z,1.00
2022-08-11T13:24:01.691Z,1.00
2022-08-11T13:26:43.053Z,1.00
2022-08-11T13:29:19.230Z,1.00
2022-08-11T13:31:47.510Z,1.00
2022-08-11T13:34:16.312Z,1.00
2022-08-11T13:36:43.682Z,1.00
2022-08-11T13:39:10.856Z,1.00
2022-08-11T13:41:39.217Z,1.00
2022-08-11T13:44:12.581Z,1.00
2022-08-11T13:46:44.457Z,1.00
2022-08-11T13:49:11.821Z,1.00
2022-08-11T13:51:40.179Z,1.00
2022-08-11T13:54:09.093Z,1.00
2022-08-11T13:56:41.142Z,1.00
2022-08-11T13:59:09.322Z,1.00
2022-08-11T14:02:20.677Z,1.00
2022-08-11T14:04:45.544Z,1.00
2022-08-11T14:07:14.833Z,1.00
2022-08-11T14:09:43.726Z,1.00
2022-08-11T14:12:35.266Z,1.00
2022-08-11T14:15:08.817Z,1.00
2022-08-11T14:17:48.160Z,1.00
2022-08-11T14:20:39.248Z,1.00
2022-08-11T14:23:05.021Z,1.00
2022-08-11T14:25:59.792Z,1.00
2022-08-11T14:28:32.156Z,1.00
2022-08-11T14:31:03.800Z,1.00
2022-08-11T14:33:58.889Z,1.00
2022-08-11T14:36:24.623Z,1.00
2022-08-11T14:38:51.602Z,1.00
2022-08-11T14:41:37.289Z,1.00
2022-08-11T14:44:44.055Z,1.00
2022-08-11T14:47:23.094Z,1.00
2022-08-11T14:49:58.509Z,1.00
2022-08-11T14:52:48.448Z,1.00
2022-08-11T14:55:34.149Z,1.00
2022-08-11T14:58:02.096Z,1.00
2022-08-11T15:00:29.387Z,1.00
2022-08-11T15:03:12.914Z,1.00
2022-08-11T15:05:57.059Z,1.00
2022-08-11T15:08:48.687Z,1.00
2022-08-11T15:11:38.295Z,1.00
2022-08-11T15:14:07.259Z,1.00
2022-08-11T15:16:55.530Z,1.00
2022-08-11T15:19:24.202Z,1.00
2022-08-11T15:22:09.739Z,1.00
2022-08-11T15:24:37.462Z,1.00
2022-08-11T15:27:31.962Z,1.00
2022-08-11T15:30:32.435Z,1.00
2022-08-11T15:33:27.224Z,1.00
2022-08-11T15:36:13.805Z,1.00
2022-08-11T15:38:55.324Z,1.00
2022-08-11T15:41:42.671Z,1.00
2022-08-11T15:44:59.065Z,1.00
2022-08-11T15:47:18.779Z,1.00
2022-08-11T15:50:10.760Z,1.00
2022-08-11T15:52:46.370Z,1.00
2022-08-11T15:55:14.304Z,1.00
2022-08-11T15:58:17.055Z,1.00
2022-08-11T16:01:09.272Z,1.00
2022-08-11T16:04:09.441Z,1.00
2022-08-11T16:06:57.895Z,1.00
2022-08-11T16:09:48.143Z,1.00
2022-08-11T16:12:23.259Z,1.00
2022-08-11T16:15:10.912Z,1.00
2022-08-11T16:17:42.253Z,1.00
2022-08-11T16:20:10.632Z,1.00
2022-08-11T16:23:00.419Z,1.00
2022-08-11T16:26:30.491Z,1.00
2022-08-11T16:28:17.103Z,1.00
2022-08-11T16:30:46.525Z,1.00
2022-08-11T16:33:22.566Z,1.00
2022-08-11T16:36:20.048Z,1.00
2022-08-11T16:38:47.492Z,1.00
2022-08-11T16:41:37.215Z,1.00
2022-08-11T16:44:37.369Z,1.00
2022-08-11T16:47:06.745Z,1.00
2022-08-11T16:49:36.319Z,1.00
2022-08-11T16:52:05.583Z,1.00
2022-08-11T16:54:34.063Z,1.00
2022-08-11T16:57:23.880Z,1.00
2022-08-11T16:59:57.849Z,1.00
2022-08-11T17:02:48.546Z,1.00
2022-08-11T17:05:54.277Z,1.00
2022-08-11T17:08:56.573Z,1.00
2022-08-11T17:11:46.866Z,1.00
2022-08-11T17:14:17.346Z,1.00
2022-08-11T17:17:05.074Z,1.00
2022-08-11T17:20:43.467Z,1.00
2022-08-11T17:22:40.189Z,1.00
2022-08-11T17:25:08.945Z,1.00
2022-08-11T17:27:37.262Z,1.00
2022-08-11T17:30:06.132Z,1.00
2022-08-11T17:33:10.923Z,1.00
2022-08-11T17:35:40.776Z,1.00
2022-08-11T17:38:10.738Z,1.00
2022-08-11T17:41:00.823Z,1.00
2022-08-11T17:43:48.118Z,1.00
2022-08-11T17:46:37.859Z,1.00
2022-08-11T17:49:09.587Z,1.00
2022-08-11T17:51:56.216Z,1.00
2022-08-11T17:54:43.215Z,1.00
2022-08-11T17:57:29.560Z,1.00
2022-08-11T17:59:57.925Z,1.00
2022-08-11T18:02:54.497Z,1.00
2022-08-11T18:05:24.586Z,1.00
2022-08-11T18:08:12.055Z,1.00
2022-08-11T18:10:58.938Z,1.00
2022-08-11T18:13:45.906Z,1.00
2022-08-11T18:16:31.316Z,1.00
2022-08-11T18:19:17.195Z,1.00
2022-08-11T18:22:14.655Z,1.00
2022-08-11T18:25:06.469Z,1.00
2022-08-11T18:27:54.110Z,1.00
2022-08-11T18:30:39.731Z,1.00
2022-08-11T18:33:50.465Z,1.00
2022-08-11T18:36:36.424Z,1.00
2022-08-11T18:39:22.763Z,1.00
2022-08-11T18:42:08.545Z,1.00
2022-08-11T18:44:55.460Z,1.00
2022-08-11T18:47:41.546Z,1.00
2022-08-11T18:50:38.617Z,1.00
2022-08-11T18:53:26.076Z,1.00
2022-08-11T18:56:12.049Z,1.00
2022-08-11T18:59:00.655Z,1.00
2022-08-11T19:01:46.565Z,1.00
2022-08-11T19:04:32.752Z,1.00
2022-08-11T19:07:24.553Z,1.00
2022-08-11T19:10:11.137Z,1.00
2022-08-11T19:13:00.024Z,1.00
2022-08-11T19:15:46.391Z,1.00
2022-08-11T19:18:36.675Z,1.00
2022-08-11T19:21:22.942Z,1.00
2022-08-11T19:24:10.818Z,1.00
2022-08-11T19:26:56.851Z,1.00
2022-08-11T19:30:07.731Z,1.00
2022-08-11T19:32:50.283Z,1.00
2022-08-11T19:35:36.182Z,1.00
2022-08-11T19:38:22.315Z,1.00
2022-08-11T19:41:08.644Z,1.00
2022-08-11T19:43:54.694Z,1.00
2022-08-11T19:46:41.632Z,1.00
2022-08-11T19:49:28.084Z,1.00
2022-08-11T19:52:14.625Z,1.00
2022-08-11T19:55:00.647Z,1.00
2022-08-11T19:57:46.543Z,1.00
2022-08-11T20:00:36.939Z,1.00
2022-08-11T20:03:25.416Z,1.00
2022-08-11T20:06:11.553Z,1.00
2022-08-11T20:09:01.132Z,1.00
2022-08-11T20:11:50.438Z,1.00
2022-08-11T20:14:37.414Z,1.00
2022-08-11T20:17:23.487Z,1.00
2022-08-11T20:20:09.499Z,1.00
2022-08-11T20:22:55.485Z,1.00
2022-08-11T20:25:42.243Z,1.00
2022-08-11T20:28:29.541Z,1.00
2022-08-11T20:31:16.739Z,1.00
2022-08-11T20:34:05.477Z,1.00
2022-08-11T20:36:54.568Z,1.00
2022-08-11T20:39:40.963Z,1.00
2022-08-11T20:42:30.301Z,1.00
2022-08-11T20:45:17.521Z,1.00
2022-08-11T20:48:14.716Z,1.00
2022-08-11T20:51:06.287Z,1.00
2022-08-11T20:53:54.878Z,1.00
2022-08-11T20:56:42.343Z,1.00
2022-08-11T20:59:28.514Z,1.00
2022-08-11T21:02:20.801Z,1.00
2022-08-11T21:05:07.483Z,1.00
2022-08-11T21:08:02.205Z,1.00
2022-08-11T21:10:51.194Z,1.00
2022-08-11T21:13:57.856Z,1.00
2022-08-11T21:16:54.411Z,1.00
2022-08-11T21:20:00.646Z,1.00
2022-08-11T21:22:59.102Z,1.00
2022-08-11T21:25:54.402Z,1.00
2022-08-11T21:28:41.159Z,1.00
2022-08-11T21:31:27.732Z,1.00
2022-08-11T21:34:13.814Z,1.00
2022-08-11T21:37:00.158Z,1.00
2022-08-11T21:39:46.596Z,1.00
2022-08-11T21:42:32.696Z,1.00
2022-08-11T21:45:18.503Z,1.00
2022-08-11T21:48:04.937Z,1.00
2022-08-11T21:50:50.414Z,1.00
2022-08-11T21:53:36.908Z,1.00
2022-08-11T21:56:25.466Z,1.00
2022-08-11T21:59:13.194Z,1.00
2022-08-11T22:01:58.633Z,1.00
2022-08-11T22:04:44.162Z,1.00
2022-08-11T22:07:29.497Z,1.00
2022-08-11T22:10:40.928Z,1.00
2022-08-11T22:13:25.001Z,1.00
2022-08-11T22:16:11.570Z,1.00
2022-08-11T22:18:56.984Z,1.00
2022-08-11T22:22:01.082Z,1.00
2022-08-11T22:24:48.845Z,1.00
2022-08-11T22:27:34.220Z,1.00
2022-08-11T22:30:20.241Z,1.00
2022-08-11T22:33:06.497Z,1.00
2022-08-11T22:35:52.978Z,1.00
2022-08-11T22:38:38.858Z,1.00
2022-08-11T22:41:24.439Z,1.00
2022-08-11T22:44:09.789Z,1.00
2022-08-11T22:46:55.348Z,1.00
2022-08-11T22:49:42.613Z,1.00
2022-08-11T22:52:43.858Z,1.00
2022-08-11T22:55:30.119Z,1.00
2022-08-11T22:58:16.098Z,1.00
2022-08-11T23:01:03.127Z,1.00
2022-08-11T23:03:50.298Z,1.00
2022-08-11T23:06:36.676Z,1.00
2022-08-11T23:09:22.730Z,1.00
2022-08-11T23:12:10.448Z,1.00
2022-08-11T23:14:57.614Z,1.00
2022-08-11T23:17:44.350Z,1.00
2022-08-11T23:20:33.583Z,1.00
2022-08-11T23:23:25.748Z,1.00
2022-08-11T23:26:12.878Z,1.00
2022-08-11T23:28:59.357Z,1.00
2022-08-11T23:31:52.041Z,1.00
2022-08-11T23:35:02.763Z,1.00
2022-08-11T23:37:49.356Z,1.00
2022-08-11T23:40:34.662Z,1.00
2022-08-11T23:43:20.291Z,1.00
2022-08-11T23:46:05.690Z,1.00
2022-08-11T23:48:55.300Z,1.00
2022-08-11T23:51:41.635Z,1.00
2022-08-11T23:54:29.956Z,1.00
2022-08-11T23:57:17.132Z,1.00
